createdAt,value
2017-09-24T00:00:42.910Z,98130.92
2017-09-24T00:03:10.868Z,98129.23
2017-09-24T00:05:38.717Z,98127.23
2017-09-24T00:08:07.596Z,98126.47
2017-09-24T00:10:35.385Z,98119.22
2017-09-24T00:13:03.120Z,98127.53
2017-09-24T00:15:30.985Z,98122.42
2017-09-24T00:18:00.053Z,98123.03
2017-09-24T00:20:27.914Z,98130.91
2017-09-24T00:22:56.734Z,98131.56
2017-09-24T00:25:24.547Z,98123.15
2017-09-24T00:27:53.503Z,98123.85
2017-09-24T00:30:21.181Z,98132.16
2017-09-24T00:32:49.074Z,98128.95
2017-09-24T00:35:16.761Z,98132.73
2017-09-24T00:37:44.935Z,98125.89
2017-09-24T00:40:14.003Z,98129.93
2017-09-24T00:42:41.766Z,98129.12
2017-09-24T00:45:09.551Z,98119.91
2017-09-24T00:47:37.070Z,98125.73
2017-09-24T00:50:06.104Z,98118.87
2017-09-24T00:52:34.886Z,98116.09
2017-09-24T00:55:02.642Z,98114.55
2017-09-24T00:57:30.843Z,98108.48
2017-09-24T00:59:59.229Z,98102.18
2017-09-24T01:02:27.734Z,98103.33
2017-09-24T01:04:55.504Z,98106.09
2017-09-24T01:07:23.704Z,98110.97
2017-09-24T01:09:51.550Z,98106.52
2017-09-24T01:12:19.913Z,98104.99
2017-09-24T01:14:48.994Z,98100.14
2017-09-24T01:17:18.421Z,98102.40
2017-09-24T01:19:47.098Z,98101.73
2017-09-24T01:22:15.219Z,98104.66
2017-09-24T01:24:47.255Z,98099.15
2017-09-24T01:27:15.077Z,98099.45
2017-09-24T01:29:42.958Z,98104.24
2017-09-24T01:32:11.278Z,98101.44
2017-09-24T01:34:38.849Z,98101.95
2017-09-24T01:37:06.377Z,98103.00
2017-09-24T01:39:36.850Z,98102.13
2017-09-24T01:42:05.653Z,98097.03
2017-09-24T01:44:33.503Z,98104.09
2017-09-24T01:47:02.845Z,98101.45
2017-09-24T01:49:30.516Z,98093.36
2017-09-24T01:51:58.637Z,98096.77
2017-09-24T01:54:26.964Z,98100.20
2017-09-24T01:56:55.685Z,98092.36
2017-09-24T01:59:24.259Z,98094.58
2017-09-24T02:01:52.038Z,98093.86
2017-09-24T02:04:19.614Z,98093.71
2017-09-24T02:06:47.339Z,98089.03
2017-09-24T02:09:15.356Z,98089.32
2017-09-24T02:11:43.966Z,98092.48
2017-09-24T02:14:12.601Z,98093.27
2017-09-24T02:16:40.350Z,98095.39
2017-09-24T02:19:09.443Z,98090.17
2017-09-24T02:21:38.144Z,98092.09
2017-09-24T02:24:06.136Z,98095.84
2017-09-24T02:26:33.656Z,98098.11
2017-09-24T02:29:01.765Z,98098.77
2017-09-24T02:31:29.695Z,98104.82
2017-09-24T02:33:57.580Z,98099.90
2017-09-24T02:36:25.664Z,98099.13
2017-09-24T02:38:53.700Z,98097.42
2017-09-24T02:41:21.510Z,98104.72
2017-09-24T02:43:51.379Z,98100.52
2017-09-24T02:46:18.940Z,98107.06
2017-09-24T02:48:47.652Z,98114.38
2017-09-24T02:51:15.530Z,98112.86
2017-09-24T02:53:43.356Z,98115.37
2017-09-24T02:56:10.919Z,98097.24
2017-09-24T02:58:40.092Z,98119.84
2017-09-24T03:01:08.055Z,98113.16
2017-09-24T03:03:35.696Z,98112.42
2017-09-24T03:06:04.483Z,98110.00
2017-09-24T03:08:31.981Z,98121.21
2017-09-24T03:10:59.978Z,98111.95
2017-09-24T03:13:29.776Z,98110.87
2017-09-24T03:15:57.732Z,98117.87
2017-09-24T03:18:25.421Z,98105.80
2017-09-24T03:20:53.135Z,98118.83
2017-09-24T03:23:21.465Z,98114.62
2017-09-24T03:25:49.827Z,98112.30
2017-09-24T03:28:17.668Z,98117.84
2017-09-24T03:30:45.520Z,98118.57
2017-09-24T03:33:13.277Z,98114.70
2017-09-24T03:35:41.070Z,98093.48
2017-09-24T03:38:08.871Z,98109.42
2017-09-24T03:40:37.087Z,98058.86
2017-09-24T03:43:04.581Z,98106.88
2017-09-24T03:45:32.613Z,98106.11
2017-09-24T03:48:03.313Z,98110.16
2017-09-24T03:50:31.942Z,98111.54
2017-09-24T03:53:01.622Z,98109.64
2017-09-24T03:55:31.148Z,98107.75
2017-09-24T03:58:01.734Z,98106.22
2017-09-24T04:00:29.601Z,98113.10
2017-09-24T04:02:57.474Z,98114.05
2017-09-24T04:05:26.396Z,98112.88
2017-09-24T04:07:54.912Z,98116.20
2017-09-24T04:10:24.631Z,98110.91
2017-09-24T04:12:52.648Z,98109.05
2017-09-24T04:15:20.464Z,98105.64
2017-09-24T04:17:48.190Z,98103.17
2017-09-24T04:20:17.360Z,98103.87
2017-09-24T04:22:45.377Z,98105.31
2017-09-24T04:25:14.509Z,98108.77
2017-09-24T04:27:43.584Z,98116.55
2017-09-24T04:30:11.227Z,98115.38
2017-09-24T04:32:39.114Z,98117.78
2017-09-24T04:35:06.748Z,98116.60
2017-09-24T04:37:34.684Z,98115.52
2017-09-24T04:40:02.250Z,98111.02
2017-09-24T04:42:30.192Z,98115.75
2017-09-24T04:44:57.832Z,98121.52
2017-09-24T04:47:25.938Z,98117.78
2017-09-24T04:49:53.469Z,98122.59
2017-09-24T04:52:21.200Z,98121.16
2017-09-24T04:54:49.062Z,98118.44
2017-09-24T04:57:16.778Z,98124.92
2017-09-24T04:59:44.274Z,98120.63
2017-09-24T05:02:11.768Z,98116.81
2017-09-24T05:04:39.259Z,98110.00
2017-09-24T05:07:06.757Z,98125.31
2017-09-24T05:09:34.275Z,98122.35
2017-09-24T05:12:02.065Z,98119.37
2017-09-24T05:14:29.659Z,98121.67
2017-09-24T05:16:57.187Z,98114.91
2017-09-24T05:19:24.647Z,98120.00
2017-09-24T05:21:52.166Z,98124.47
2017-09-24T05:24:19.711Z,98130.42
2017-09-24T05:26:47.262Z,98136.07
2017-09-24T05:29:14.836Z,98134.11
2017-09-24T05:31:42.419Z,98139.17
2017-09-24T05:34:09.957Z,98124.16
2017-09-24T05:36:37.459Z,98142.00
2017-09-24T05:39:04.989Z,98151.27
2017-09-24T05:41:32.561Z,98152.42
2017-09-24T05:44:00.301Z,98163.39
2017-09-24T05:46:28.072Z,98160.45
2017-09-24T05:48:55.596Z,98165.25
2017-09-24T05:51:23.313Z,98166.36
2017-09-24T05:53:50.845Z,98166.91
2017-09-24T05:56:19.367Z,98169.17
2017-09-24T05:58:48.066Z,98173.11
2017-09-24T06:01:20.124Z,98174.22
2017-09-24T06:03:48.019Z,98176.02
2017-09-24T06:06:15.536Z,98185.78
2017-09-24T06:08:47.299Z,98183.39
2017-09-24T06:11:16.169Z,98177.34
2017-09-24T06:13:44.664Z,98173.31
2017-09-24T06:16:13.244Z,98175.95
2017-09-24T06:18:40.833Z,98176.70
2017-09-24T06:21:08.387Z,98176.48
2017-09-24T06:23:35.920Z,98181.47
2017-09-24T06:26:03.429Z,98183.11
2017-09-24T06:28:31.089Z,98187.81
2017-09-24T06:30:58.612Z,98195.58
2017-09-24T06:33:26.142Z,98193.85
2017-09-24T06:35:54.385Z,98199.58
2017-09-24T06:38:21.952Z,98195.16
2017-09-24T06:40:50.118Z,98195.88
2017-09-24T06:43:17.683Z,98195.97
2017-09-24T06:45:45.226Z,98192.23
2017-09-24T06:48:12.771Z,98197.63
2017-09-24T06:50:40.480Z,98197.82
2017-09-24T06:53:08.117Z,98199.12
2017-09-24T06:55:35.655Z,98211.93
2017-09-24T06:58:03.140Z,98211.42
2017-09-24T07:00:30.747Z,98206.43
2017-09-24T07:02:58.272Z,98208.88
2017-09-24T07:05:25.916Z,98208.34
2017-09-24T07:07:53.620Z,98211.29
2017-09-24T07:10:21.179Z,98214.53
2017-09-24T07:12:48.710Z,98213.75
2017-09-24T07:15:16.300Z,98219.61
2017-09-24T07:17:43.814Z,98218.97
2017-09-24T07:20:11.425Z,98223.23
2017-09-24T07:22:39.558Z,98218.08
2017-09-24T07:25:07.140Z,98217.20
2017-09-24T07:27:34.677Z,98226.70
2017-09-24T07:30:02.310Z,98219.77
2017-09-24T07:32:30.137Z,98221.45
2017-09-24T07:34:57.775Z,98218.38
2017-09-24T07:37:25.358Z,98219.58
2017-09-24T07:39:53.661Z,98224.05
2017-09-24T07:42:21.339Z,98231.63
2017-09-24T07:44:48.898Z,98232.93
2017-09-24T07:47:16.477Z,98230.47
2017-09-24T07:49:44.010Z,98227.95
2017-09-24T07:54:45.464Z,98228.47
2017-09-24T07:57:13.481Z,98218.58
2017-09-24T07:59:41.042Z,98231.31
2017-09-24T08:02:08.735Z,98234.02
2017-09-24T08:04:37.575Z,98228.41
2017-09-24T08:07:05.265Z,98232.09
2017-09-24T08:09:32.770Z,98222.91
2017-09-24T08:12:00.324Z,98228.07
2017-09-24T08:14:27.931Z,98231.81
2017-09-24T08:16:55.471Z,98234.91
2017-09-24T08:19:23.113Z,98235.27
2017-09-24T08:21:50.645Z,98226.36
2017-09-24T08:24:18.207Z,98226.38
2017-09-24T08:26:45.745Z,98230.36
2017-09-24T08:29:13.342Z,98225.80
2017-09-24T08:31:40.861Z,98233.08
2017-09-24T08:34:09.276Z,98222.97
2017-09-24T08:36:37.879Z,98219.31
2017-09-24T08:39:05.409Z,98213.59
2017-09-24T08:41:32.931Z,98219.76
2017-09-24T08:44:01.143Z,98214.84
2017-09-24T08:46:28.719Z,98215.41
2017-09-24T08:48:56.296Z,98216.30
2017-09-24T08:51:23.843Z,98225.50
2017-09-24T08:53:51.365Z,98229.47
2017-09-24T08:56:18.951Z,98223.16
2017-09-24T08:58:46.647Z,98222.58
2017-09-24T09:01:14.316Z,98224.55
2017-09-24T09:03:41.880Z,98220.58
2017-09-24T09:06:10.152Z,98222.09
2017-09-24T09:08:37.706Z,98216.48
2017-09-24T09:11:05.207Z,98221.13
2017-09-24T09:13:32.949Z,98214.09
2017-09-24T09:16:02.746Z,98221.49
2017-09-24T09:18:30.698Z,98213.58
2017-09-24T09:20:58.661Z,98214.89
2017-09-24T09:23:26.458Z,98219.62
2017-09-24T09:25:54.762Z,98215.43
2017-09-24T09:28:24.345Z,98217.39
2017-09-24T09:30:52.180Z,98211.45
2017-09-24T09:33:22.071Z,98204.94
2017-09-24T09:35:49.752Z,98208.73
2017-09-24T09:38:17.362Z,98211.61
2017-09-24T09:40:44.873Z,98210.47
2017-09-24T09:43:14.553Z,98198.69
2017-09-24T09:45:53.870Z,98203.75
2017-09-24T09:48:21.417Z,98205.59
2017-09-24T09:50:48.985Z,98195.74
2017-09-24T09:53:16.598Z,98189.36
2017-09-24T09:55:44.169Z,98195.06
2017-09-24T09:58:11.935Z,98195.27
2017-09-24T10:00:39.776Z,98191.23
2017-09-24T10:03:07.302Z,98184.55
2017-09-24T10:05:34.808Z,98183.91
2017-09-24T10:08:14.189Z,98191.59
2017-09-24T10:10:41.719Z,98183.34
2017-09-24T10:13:09.236Z,98185.73
2017-09-24T10:15:36.760Z,98184.28
2017-09-24T10:18:04.265Z,98183.14
2017-09-24T10:20:31.813Z,98183.48
2017-09-24T10:22:59.331Z,98176.94
2017-09-24T10:25:26.864Z,98180.06
2017-09-24T10:27:55.463Z,98178.13
2017-09-24T10:30:35.037Z,98171.19
2017-09-24T10:33:02.564Z,98174.88
2017-09-24T10:35:30.078Z,98174.79
2017-09-24T10:37:57.603Z,98172.74
2017-09-24T10:40:25.774Z,98175.48
2017-09-24T10:42:53.994Z,98171.07
2017-09-24T10:45:25.428Z,98170.20
2017-09-24T10:47:52.939Z,98168.69
2017-09-24T10:50:20.447Z,98167.33
2017-09-24T10:52:48.069Z,98169.30
2017-09-24T10:55:15.639Z,98162.17
2017-09-24T10:57:43.243Z,98159.67
2017-09-24T11:00:10.807Z,98158.02
2017-09-24T11:02:38.312Z,98157.84
2017-09-24T11:05:05.796Z,98159.62
2017-09-24T11:07:34.244Z,98154.78
2017-09-24T11:10:01.728Z,98149.47
2017-09-24T11:12:29.211Z,98138.11
2017-09-24T11:14:57.149Z,98153.19
2017-09-24T11:17:24.677Z,98150.91
2017-09-24T11:19:52.267Z,98148.42
2017-09-24T11:22:19.781Z,98140.75
2017-09-24T11:24:47.331Z,98142.43
2017-09-24T11:27:14.852Z,98145.42
2017-09-24T11:29:42.386Z,98137.29
2017-09-24T11:32:15.112Z,98132.24
2017-09-24T11:34:42.692Z,98136.61
2017-09-24T11:37:10.233Z,98130.97
2017-09-24T11:39:37.756Z,98128.25
2017-09-24T11:42:05.265Z,98128.66
2017-09-24T11:44:32.767Z,98129.48
2017-09-24T11:47:00.306Z,98128.11
2017-09-24T11:49:27.801Z,98129.03
2017-09-24T11:51:55.383Z,98127.45
2017-09-24T11:54:22.897Z,98121.13
2017-09-24T11:56:50.386Z,98121.10
2017-09-24T11:59:17.915Z,98121.96
2017-09-24T12:01:45.493Z,98118.83
2017-09-24T12:04:13.493Z,98118.13
2017-09-24T12:06:41.010Z,98110.80
2017-09-24T12:09:08.493Z,98111.34
2017-09-24T12:11:36.026Z,98115.81
2017-09-24T12:14:03.537Z,98110.92
2017-09-24T12:16:31.005Z,98111.05
2017-09-24T12:18:58.585Z,98110.36
2017-09-24T12:21:26.186Z,98115.62
2017-09-24T12:23:53.819Z,98111.41
2017-09-24T12:26:21.392Z,98116.72
2017-09-24T12:28:49.000Z,98113.73
2017-09-24T12:31:16.731Z,98113.38
2017-09-24T12:33:44.298Z,98111.57
2017-09-24T12:36:12.399Z,98107.55
2017-09-24T12:38:40.595Z,98109.83
2017-09-24T12:41:08.177Z,98100.17
2017-09-24T12:43:35.676Z,98105.52
2017-09-24T12:46:03.180Z,98102.62
2017-09-24T12:48:30.806Z,98103.77
2017-09-24T12:50:58.351Z,98101.56
2017-09-24T12:53:25.912Z,98111.18
2017-09-24T12:55:53.455Z,98108.89
2017-09-24T12:58:20.947Z,98109.67
2017-09-24T13:00:48.909Z,98109.08
2017-09-24T13:03:16.772Z,98108.85
2017-09-24T13:05:44.982Z,98110.86
2017-09-24T13:08:12.508Z,98119.88
2017-09-24T13:10:40.158Z,98111.50
2017-09-24T13:13:07.702Z,98111.32
2017-09-24T13:15:35.217Z,98103.87
2017-09-24T13:18:02.733Z,98103.64
2017-09-24T13:20:30.233Z,98100.91
2017-09-24T13:22:57.759Z,98103.11
2017-09-24T13:25:25.976Z,98106.31
2017-09-24T13:27:53.486Z,98103.11
2017-09-24T13:30:21.017Z,98105.20
2017-09-24T13:32:48.518Z,98111.11
2017-09-24T13:35:16.056Z,98102.09
2017-09-24T13:37:43.529Z,98100.79
2017-09-24T13:40:11.485Z,98112.48
2017-09-24T13:42:38.956Z,98116.88
2017-09-24T13:45:06.443Z,98115.87
2017-09-24T13:47:33.981Z,98114.68
2017-09-24T13:50:01.512Z,98120.82
2017-09-24T13:52:29.100Z,98115.48
2017-09-24T13:54:56.639Z,98118.86
2017-09-24T13:57:24.208Z,98111.33
2017-09-24T13:59:51.755Z,98110.55
2017-09-24T14:02:19.321Z,98107.01
2017-09-24T14:04:47.089Z,98118.34
2017-09-24T14:07:15.516Z,98118.34
2017-09-24T14:09:43.321Z,98110.78
2017-09-24T14:12:10.867Z,98110.11
2017-09-24T14:14:38.395Z,98110.59
2017-09-24T14:17:06.782Z,98112.85
2017-09-24T14:19:34.366Z,98112.02
2017-09-24T14:22:01.993Z,98105.16
2017-09-24T14:24:33.506Z,98110.02
2017-09-24T14:27:01.107Z,98105.34
2017-09-24T14:29:28.670Z,98107.11
2017-09-24T14:31:56.188Z,98101.85
2017-09-24T14:34:24.344Z,98108.08
2017-09-24T14:36:51.855Z,98106.26
2017-09-24T14:39:19.385Z,98103.96
2017-09-24T14:41:46.881Z,98108.77
2017-09-24T14:44:14.400Z,98105.68
2017-09-24T14:46:41.973Z,98098.88
2017-09-24T14:49:09.559Z,98102.82
2017-09-24T14:51:37.117Z,98097.88
2017-09-24T14:54:04.667Z,98104.03
2017-09-24T14:56:32.546Z,98094.81
2017-09-24T14:59:00.735Z,98101.36
2017-09-24T15:01:28.244Z,98100.32
2017-09-24T15:03:55.778Z,98099.28
2017-09-24T15:06:23.305Z,98099.84
2017-09-24T15:08:50.901Z,98095.34
2017-09-24T15:11:19.164Z,98103.11
2017-09-24T15:13:46.731Z,98099.91
2017-09-24T15:16:14.247Z,98099.59
2017-09-24T15:18:41.766Z,98109.63
2017-09-24T15:21:09.332Z,98108.04
2017-09-24T15:23:36.874Z,98110.35
2017-09-24T15:26:04.491Z,98112.94
2017-09-24T15:28:33.126Z,98111.11
2017-09-24T15:31:00.627Z,98107.14
2017-09-24T15:33:28.120Z,98109.31
2017-09-24T15:35:55.613Z,98113.06
2017-09-24T15:38:23.286Z,98115.17
2017-09-24T15:40:50.866Z,98109.77
2017-09-24T15:43:18.431Z,98112.91
2017-09-24T15:45:46.007Z,98111.28
2017-09-24T15:48:13.533Z,98120.04
2017-09-24T15:50:41.192Z,98110.94
2017-09-24T15:53:09.158Z,98116.16
2017-09-24T15:55:37.395Z,98114.36
2017-09-24T15:58:05.062Z,98118.28
2017-09-24T16:00:32.553Z,98119.37
2017-09-24T16:03:00.043Z,98118.22
2017-09-24T16:05:27.577Z,98122.77
2017-09-24T16:07:55.187Z,98123.74
2017-09-24T16:10:22.802Z,98125.11
2017-09-24T16:12:50.354Z,98123.03
2017-09-24T16:15:17.915Z,98125.85
2017-09-24T16:17:45.385Z,98121.09
2017-09-24T16:20:12.906Z,98123.64
2017-09-24T16:22:40.581Z,98123.23
2017-09-24T16:25:08.047Z,98121.69
2017-09-24T16:27:36.399Z,98102.89
2017-09-24T16:30:04.025Z,98126.84
2017-09-24T16:32:31.520Z,98125.41
2017-09-24T16:34:59.938Z,98126.85
2017-09-24T16:37:29.211Z,98133.02
2017-09-24T16:39:57.374Z,98136.77
2017-09-24T16:42:25.526Z,98134.81
2017-09-24T16:44:53.908Z,98137.50
2017-09-24T16:47:21.437Z,98136.03
2017-09-24T16:49:48.968Z,98137.45
2017-09-24T16:52:17.183Z,98136.00
2017-09-24T16:54:44.781Z,98137.68
2017-09-24T16:57:13.249Z,98141.58
2017-09-24T16:59:40.815Z,98141.66
2017-09-24T17:02:09.303Z,98141.61
2017-09-24T17:04:41.606Z,98058.86
2017-09-24T17:07:11.230Z,98138.44
2017-09-24T17:09:41.301Z,98142.14
2017-09-24T17:12:08.849Z,98132.52
2017-09-24T17:14:36.335Z,98143.17
2017-09-24T17:17:03.921Z,98141.61
2017-09-24T17:19:31.485Z,98147.53
2017-09-24T17:21:59.047Z,98144.51
2017-09-24T17:24:26.643Z,98150.80
2017-09-24T17:26:54.269Z,98152.48
2017-09-24T17:29:21.927Z,98149.00
2017-09-24T17:31:49.484Z,98156.86
2017-09-24T17:34:17.051Z,98134.92
2017-09-24T17:36:44.525Z,98157.55
2017-09-24T17:39:12.177Z,98158.97
2017-09-24T17:41:39.743Z,98162.56
2017-09-24T17:44:07.272Z,98164.04
2017-09-24T17:46:34.788Z,98163.35
2017-09-24T17:49:02.388Z,98159.26
2017-09-24T17:51:29.925Z,98159.03
2017-09-24T17:53:57.459Z,98159.62
2017-09-24T17:56:25.554Z,98161.78
2017-09-24T17:58:53.903Z,98161.64
2017-09-24T18:01:21.469Z,98166.90
2017-09-24T18:03:49.065Z,98167.33
2017-09-24T18:06:16.568Z,98169.30
2017-09-24T18:08:44.103Z,98169.97
2017-09-24T18:11:11.970Z,98171.91
2017-09-24T18:13:39.545Z,98172.61
2017-09-24T18:16:07.691Z,98178.23
2017-09-24T18:18:35.673Z,98183.53
2017-09-24T18:21:03.254Z,98192.42
2017-09-24T18:23:30.769Z,98193.24
2017-09-24T18:25:58.337Z,98197.90
2017-09-24T18:28:25.942Z,98197.57
2017-09-24T18:30:53.511Z,98193.74
2017-09-24T18:33:23.137Z,98196.90
2017-09-24T18:35:52.408Z,98198.53
2017-09-24T18:38:21.959Z,98194.14
2017-09-24T18:40:50.702Z,98196.08
2017-09-24T18:43:20.396Z,98189.36
2017-09-24T18:45:50.799Z,98189.16
2017-09-24T18:48:19.852Z,98187.53
2017-09-24T18:50:49.370Z,98188.55
2017-09-24T18:53:20.624Z,98166.23
2017-09-24T18:55:51.776Z,98176.64
2017-09-24T18:58:21.738Z,98176.17
2017-09-24T19:00:51.457Z,98171.16
2017-09-24T19:03:21.546Z,98178.69
2017-09-24T19:05:49.162Z,98179.50
2017-09-24T19:08:16.751Z,98176.55
2017-09-24T19:10:44.360Z,98176.77
2017-09-24T19:13:11.985Z,98177.82
2017-09-24T19:15:39.514Z,98179.20
2017-09-24T19:18:08.503Z,98182.24
2017-09-24T19:20:36.356Z,98191.95
2017-09-24T19:23:04.179Z,98192.77
2017-09-24T19:25:31.782Z,98197.20
2017-09-24T19:27:59.307Z,98191.92
2017-09-24T19:30:28.731Z,98193.40
2017-09-24T19:32:56.857Z,98196.23
2017-09-24T19:35:25.732Z,98199.17
2017-09-24T19:37:53.362Z,98192.34
2017-09-24T19:40:21.822Z,98195.23
2017-09-24T19:42:50.105Z,98199.28
2017-09-24T19:45:17.851Z,98196.80
2017-09-24T19:47:45.527Z,98206.08
2017-09-24T19:50:13.104Z,98203.34
2017-09-24T19:52:41.010Z,98202.79
2017-09-24T19:55:08.559Z,98197.98
2017-09-24T19:57:36.220Z,98186.71
2017-09-24T20:00:04.809Z,98193.11
2017-09-24T20:02:33.310Z,98195.27
2017-09-24T20:05:00.976Z,98195.20
2017-09-24T20:07:28.631Z,98196.23
2017-09-24T20:09:56.338Z,98201.28
2017-09-24T20:12:24.099Z,98203.44
2017-09-24T20:14:52.394Z,98189.96
2017-09-24T20:17:20.227Z,98201.95
2017-09-24T20:19:47.771Z,98197.08
2017-09-24T20:22:15.494Z,98203.55
2017-09-24T20:24:43.121Z,98201.72
2017-09-24T20:27:11.146Z,98205.88
2017-09-24T20:29:38.844Z,98198.36
2017-09-24T20:32:07.261Z,98201.34
2017-09-24T20:34:34.793Z,98203.58
2017-09-24T20:37:02.529Z,98198.53
2017-09-24T20:39:30.304Z,98205.48
2017-09-24T20:41:58.184Z,98201.28
2017-09-24T20:44:25.956Z,98201.36
2017-09-24T20:46:54.838Z,98196.48
2017-09-24T20:49:22.410Z,98198.95
2017-09-24T20:51:50.840Z,98205.09
2017-09-24T20:54:18.394Z,98202.37
2017-09-24T20:56:45.971Z,98195.12
2017-09-24T20:59:13.987Z,98195.36
2017-09-24T21:01:42.439Z,98190.95
2017-09-24T21:04:10.062Z,98196.70
2017-09-24T21:06:38.262Z,98202.05
2017-09-24T21:09:05.877Z,98194.14
2017-09-24T21:11:33.542Z,98188.66
2017-09-24T21:14:01.446Z,98192.88
2017-09-24T21:16:29.170Z,98192.88
2017-09-24T21:18:56.982Z,98188.98
2017-09-24T21:21:25.396Z,98190.41
2017-09-24T21:23:53.242Z,98192.57
2017-09-24T21:26:21.014Z,98200.20
2017-09-24T21:28:48.659Z,98194.07
2017-09-24T21:31:17.292Z,98191.58
2017-09-24T21:33:46.483Z,98196.64
2017-09-24T21:36:14.184Z,98201.77
2017-09-24T21:38:42.180Z,98196.31
2017-09-24T21:41:14.410Z,98193.06
2017-09-24T21:43:42.026Z,98194.41
2017-09-24T21:46:09.973Z,98191.98
2017-09-24T21:48:38.950Z,98188.66
2017-09-24T21:51:06.510Z,98192.91
2017-09-24T21:53:34.380Z,98185.14
2017-09-24T21:56:02.065Z,98185.94
2017-09-24T21:58:31.775Z,98185.55
2017-09-24T22:00:59.435Z,98182.55
2017-09-24T22:03:27.212Z,98182.25
2017-09-24T22:05:54.716Z,98183.58
2017-09-24T22:08:22.349Z,98188.08
2017-09-24T22:10:50.077Z,98189.86
2017-09-24T22:13:17.679Z,98190.78
2017-09-24T22:15:45.255Z,98186.95
2017-09-24T22:18:12.881Z,98190.03
2017-09-24T22:20:41.094Z,98188.98
2017-09-24T22:23:08.973Z,98185.73
2017-09-24T22:25:37.009Z,98188.11
2017-09-24T22:28:09.600Z,98181.06
2017-09-24T22:30:40.967Z,98179.82
2017-09-24T22:33:08.599Z,98179.67
2017-09-24T22:35:36.432Z,98184.08
2017-09-24T22:38:04.851Z,98176.66
2017-09-24T22:40:32.569Z,98180.83
2017-09-24T22:43:00.569Z,98180.94
2017-09-24T22:45:28.301Z,98181.11
2017-09-24T22:47:58.838Z,98175.29
2017-09-24T22:50:26.601Z,98173.63
2017-09-24T22:52:54.234Z,98166.95
2017-09-24T22:55:21.862Z,98153.91
2017-09-24T22:57:49.477Z,98163.59
2017-09-24T23:00:17.396Z,98164.75
2017-09-24T23:02:44.982Z,98151.73
2017-09-24T23:05:14.263Z,98151.88
2017-09-24T23:07:50.396Z,98162.96
2017-09-24T23:10:21.497Z,98159.91
2017-09-24T23:12:49.839Z,98157.75
2017-09-24T23:15:17.431Z,98156.64
2017-09-24T23:17:45.048Z,98148.93
2017-09-24T23:20:12.650Z,98151.92
2017-09-24T23:22:40.333Z,98155.58
2017-09-24T23:25:08.757Z,98149.06
2017-09-24T23:27:36.451Z,98146.66
2017-09-24T23:30:04.950Z,98139.17
2017-09-24T23:32:32.600Z,98146.69
2017-09-24T23:35:00.885Z,98147.64
2017-09-24T23:37:28.667Z,98142.41
2017-09-24T23:39:56.511Z,98136.06
2017-09-24T23:42:24.843Z,98141.97
2017-09-24T23:44:57.796Z,98141.75
2017-09-24T23:47:25.637Z,98140.04
2017-09-24T23:52:33.022Z,98134.98
2017-09-24T23:55:02.450Z,98129.55
2017-09-24T23:57:29.995Z,98128.57
2017-09-24T23:59:57.915Z,98127.83
